Time;durP1;ratioP1;P1;durP2;ratioP2;P2;SDS_P1;SDS_P2;PMS_P1;PMS_P2;Temp;Humidity;BMP_temperature;BMP_pressure;BME280_temperature;BME280_humidity;BME280_pressure;Samples;Min_cycle;Max_cycle;Signal;HPM_P1;HPM_P2
2022/10/17 00:01:48;;;;;;;4.28;2.40;;;;;;;16.08;71.70;101600.41;5085987;28;20055;-73
2022/10/17 00:04:14;;;;;;;3.08;2.30;;;;;;;15.99;71.56;101587.78;5089556;28;20055;-73
2022/10/17 00:06:41;;;;;;;3.80;2.28;;;;;;;16.12;71.44;101590.50;5086468;28;20051;-73
2022/10/17 00:09:08;;;;;;;5.15;1.90;;;;;;;15.97;71.04;101598.44;5085364;28;20055;-73
2022/10/17 00:11:35;;;;;;;15.75;3.78;;;;;;;15.52;74.56;101599.38;5079175;28;20047;-74
2022/10/17 00:14:03;;;;;;;4.38;2.60;;;;;;;15.63;73.81;101604.03;5080102;28;20048;-73
2022/10/17 00:16:33;;;;;;;5.45;2.22;;;;;;;15.81;72.83;101600.31;5087389;28;20055;-74
2022/10/17 00:19:00;;;;;;;4.72;2.90;;;;;;;15.91;74.00;101601.47;5081415;27;20039;-73
2022/10/17 00:21:26;;;;;;;3.80;2.80;;;;;;;15.97;73.66;101605.50;5090298;28;20040;-73
2022/10/17 00:23:53;;;;;;;3.03;2.60;;;;;;;16.19;72.64;101600.63;5092467;27;20039;-74
2022/10/17 00:26:20;;;;;;;6.53;2.33;;;;;;;16.23;71.05;101599.47;5099855;27;20047;-73
2022/10/17 00:28:48;;;;;;;3.70;2.53;;;;;;;16.03;73.07;101603.38;5098239;27;20043;-73
2022/10/17 00:31:16;;;;;;;5.55;3.42;;;;;;;16.16;72.95;101598.16;5089188;27;20036;-73
2022/10/17 00:33:44;;;;;;;6.05;3.00;;;;;;;16.19;72.22;101597.97;5081223;27;20040;-73
2022/10/17 00:36:13;;;;;;;5.03;2.78;;;;;;;15.73;73.29;101596.41;5090924;28;20053;-73
2022/10/17 00:38:41;;;;;;;4.93;2.70;;;;;;;15.87;72.33;101594.66;5087778;28;20043;-73
2022/10/17 00:41:09;;;;;;;4.78;2.72;;;;;;;15.60;73.54;101598.91;5085126;27;20043;-73
2022/10/17 00:43:54;;;;;;;4.82;2.35;;;;;;;15.58;72.93;101596.38;5090835;27;20047;-73
2022/10/17 00:46:22;;;;;;;6.18;2.50;;;;;;;15.75;72.42;101587.44;5080673;28;20051;-73
2022/10/17 00:48:53;;;;;;;2.90;2.30;;;;;;;15.52;72.05;101590.63;5073993;27;20039;-73
2022/10/17 00:51:25;;;;;;;6.47;2.53;;;;;;;15.39;73.06;101594.88;5088554;27;20138;-73
2022/10/17 00:53:51;;;;;;;5.90;2.63;;;;;;;15.23;73.76;101602.81;5099984;27;20043;-73
2022/10/17 00:56:19;;;;;;;9.70;2.97;;;;;;;15.29;73.81;101596.34;5109294;27;20418;-73
2022/10/17 00:58:46;;;;;;;6.35;2.88;;;;;;;15.16;74.60;101601.47;5110603;27;20091;-73
2022/10/17 01:01:12;;;;;;;6.28;3.63;;;;;;;15.03;75.55;101598.69;5099146;27;20517;-73
2022/10/17 01:03:39;;;;;;;4.35;2.80;;;;;;;14.99;75.52;101596.31;5129089;27;20047;-73
2022/10/17 01:06:07;;;;;;;4.40;2.50;;;;;;;14.89;75.77;101589.84;5104960;27;20153;-73
2022/10/17 01:08:33;;;;;;;3.85;2.55;;;;;;;14.81;76.15;101594.69;5078890;28;20392;-73
2022/10/17 01:11:10;;;;;;;7.30;2.83;;;;;;;14.69;77.08;101592.72;5098258;28;20043;-73
2022/10/17 01:13:43;;;;;;;6.78;4.85;;;;;;;14.47;82.02;101593.91;5080825;28;20043;-73
2022/10/17 01:16:11;;;;;;;;;;;;;;;14.68;79.73;101591.00;5089360;27;20047;-72
2022/10/17 01:18:49;;;;;;;5.15;3.38;;;;;;;14.52;81.10;101589.22;5086067;28;19958;-72
2022/10/17 01:21:30;;;;;;;7.20;5.18;;;;;;;14.09;89.44;101589.78;5089856;28;20736;-73
2022/10/17 01:24:33;;;;;;;7.45;4.60;;;;;;;14.31;89.33;101594.75;5090343;28;20059;-73
2022/10/17 01:27:23;;;;;;;5.35;4.50;;;;;;;14.75;88.66;101590.59;5088265;27;20051;-73
2022/10/17 01:30:02;;;;;;;7.53;5.03;;;;;;;15.27;87.23;101585.00;5088413;28;20040;-73
2022/10/17 01:32:35;;;;;;;8.10;5.53;;;;;;;14.97;90.08;101574.38;5097831;27;20054;-73
2022/10/17 01:35:10;;;;;;;7.88;5.45;;;;;;;15.05;89.99;101574.81;5068910;28;20487;-73
2022/10/17 01:37:44;;;;;;;7.50;5.03;;;;;;;15.42;89.69;101573.53;5086774;27;20050;-73
2022/10/17 01:40:16;;;;;;;9.85;5.35;;;;;;;15.25;90.34;101553.41;5083485;28;20410;-73
2022/10/17 01:42:48;;;;;;;8.35;5.05;;;;;;;15.06;91.77;101555.41;5088753;27;20055;-72
2022/10/17 01:45:19;;;;;;;;;;;;;;;15.33;91.69;101550.31;5079087;27;20282;-72
2022/10/17 01:47:50;;;;;;;7.35;5.43;;;;;;;15.18;93.04;101548.56;5088230;27;20307;-73
2022/10/17 01:50:21;;;;;;;8.18;5.28;;;;;;;15.39;91.38;101540.22;5084239;28;20050;-73
2022/10/17 01:52:51;;;;;;;8.52;5.30;;;;;;;15.51;90.94;101542.19;5089297;28;20044;-73
2022/10/17 01:55:21;;;;;;;9.15;4.97;;;;;;;15.39;92.39;101542.88;5088975;28;20613;-73
2022/10/17 01:57:51;;;;;;;5.93;5.28;;;;;;;15.41;91.56;101529.56;5080640;28;20035;-73
2022/10/17 02:00:22;;;;;;;9.50;5.68;;;;;;;15.51;91.30;101534.25;5087553;27;20441;-73
2022/10/17 02:02:54;;;;;;;7.32;5.35;;;;;;;15.70;91.28;101538.44;5097113;27;20061;-73
2022/10/17 02:05:26;;;;;;;8.77;5.32;;;;;;;15.82;90.51;101537.66;5089605;27;20051;-73
2022/10/17 02:07:52;;;;;;;6.18;5.07;;;;;;;15.65;91.34;101537.84;5087083;27;20071;-73
2022/10/17 02:10:26;;;;;;;10.75;5.10;;;;;;;15.83;90.06;101532.31;5087037;28;20074;-73
2022/10/17 02:12:58;;;;;;;8.10;5.28;;;;;;;15.81;89.56;101546.56;5104113;27;20416;-73
2022/10/17 02:15:57;;;;;;;10.00;5.25;;;;;;;16.24;88.03;101542.13;5128595;27;20406;-73
2022/10/17 02:18:44;;;;;;;7.15;5.07;;;;;;;16.16;88.53;101550.53;5119343;27;20505;-73
2022/10/17 02:21:17;;;;;;;7.20;5.07;;;;;;;15.77;89.88;101551.19;5117177;27;20051;-72
2022/10/17 02:23:51;;;;;;;6.18;4.82;;;;;;;15.95;90.04;101544.78;5118237;27;20519;-72
2022/10/17 02:26:23;;;;;;;7.40;4.93;;;;;;;16.40;87.64;101546.38;5118988;27;20387;-72
2022/10/17 02:29:02;;;;;;;10.55;4.45;;;;;;;16.85;84.54;101536.47;5124626;27;20068;-72
2022/10/17 02:31:33;;;;;;;5.32;4.40;;;;;;;16.81;84.19;101540.25;5104383;28;20681;-72
2022/10/17 02:34:04;;;;;;;6.90;4.68;;;;;;;16.47;85.22;101546.81;5105580;28;20040;-72
2022/10/17 02:36:38;;;;;;;6.67;4.73;;;;;;;16.50;85.82;101546.63;5093776;27;20426;-72
2022/10/17 02:39:08;;;;;;;7.78;5.13;;;;;;;16.42;85.65;101546.25;5121058;27;20725;-72
2022/10/17 02:41:36;;;;;;;7.63;4.78;;;;;;;16.83;83.41;101541.00;5114995;27;20588;-72
2022/10/17 02:44:05;;;;;;;7.28;5.10;;;;;;;16.47;84.82;101542.38;5096322;27;20058;-73
2022/10/17 02:46:33;;;;;;;8.73;5.43;;;;;;;16.75;83.32;101553.88;5119022;27;20483;-73
2022/10/17 02:49:05;;;;;;;10.05;5.38;;;;;;;17.15;80.56;101545.03;5104860;28;20043;-73
2022/10/17 02:51:42;;;;;;;6.97;4.65;;;;;;;16.53;83.62;101538.47;5106650;28;20043;-73
2022/10/17 02:54:14;;;;;;;8.05;5.03;;;;;;;16.53;83.01;101542.00;5102515;27;20042;-73
2022/10/17 02:56:46;;;;;;;10.70;5.07;;;;;;;16.41;83.97;101540.09;5106380;27;20044;-73
2022/10/17 02:59:17;;;;;;;7.70;5.57;;;;;;;16.00;86.38;101553.25;5117865;27;20044;-73
2022/10/17 03:01:44;;;;;;;7.88;5.28;;;;;;;16.00;85.59;101549.81;5084267;28;20067;-73
2022/10/17 03:04:14;;;;;;;8.57;5.15;;;;;;;15.73;85.79;101554.09;5103921;27;20039;-73
2022/10/17 03:06:41;;;;;;;8.90;4.90;;;;;;;15.78;84.71;101557.34;5105088;27;20059;-72
2022/10/17 03:09:08;;;;;;;6.93;5.20;;;;;;;15.47;87.22;101547.69;5099991;28;20053;-73
2022/10/17 03:11:34;;;;;;;7.43;5.15;;;;;;;15.48;86.96;101544.13;5105014;27;20043;-73
2022/10/17 03:14:01;;;;;;;7.30;4.95;;;;;;;15.69;86.34;101547.31;5100661;27;20051;-73
2022/10/17 03:16:27;;;;;;;8.15;5.55;;;;;;;15.84;86.12;101538.44;5113431;28;20051;-74
2022/10/17 03:18:54;;;;;;;10.73;6.35;;;;;;;15.37;89.52;101531.50;5093797;28;20047;-72
2022/10/17 03:21:22;;;;;;;14.65;6.72;;;;;;;15.30;92.72;101532.81;5116734;27;20451;-72
2022/10/17 03:23:48;;;;;;;9.18;6.57;;;;;;;15.31;92.83;101537.19;5104006;27;20062;-72
2022/10/17 03:26:15;;;;;;;10.02;6.20;;;;;;;15.43;92.60;101531.19;5111047;27;20043;-72
2022/10/17 03:28:41;;;;;;;12.70;7.07;;;;;;;15.38;92.99;101533.22;5100972;27;20517;-72
2022/10/17 03:31:08;;;;;;;10.30;7.10;;;;;;;15.27;94.56;101518.94;5113600;27;20407;-72
2022/10/17 03:33:35;;;;;;;9.82;7.07;;;;;;;15.31;94.59;101517.81;5105510;28;20072;-72
2022/10/17 03:36:05;;;;;;;10.57;6.95;;;;;;;14.95;97.75;101523.47;5101837;27;20043;-72
2022/10/17 03:38:33;;;;;;;8.40;5.82;;;;;;;14.80;99.28;101530.47;5112788;27;20047;-72
2022/10/17 03:40:59;;;;;;;9.18;5.93;;;;;;;15.13;96.76;101524.19;5105261;28;20055;-72
2022/10/17 03:43:26;;;;;;;8.80;6.00;;;;;;;15.22;97.47;101527.16;5109509;27;20050;-73
2022/10/17 03:45:52;;;;;;;9.40;5.80;;;;;;;15.00;97.75;101532.00;5104751;28;20039;-72
2022/10/17 03:48:19;;;;;;;9.32;6.35;;;;;;;15.29;97.06;101525.00;5111814;27;20423;-72
2022/10/17 03:50:45;;;;;;;9.15;6.20;;;;;;;15.21;96.82;101520.16;5104421;28;20055;-72
2022/10/17 03:53:12;;;;;;;10.23;6.88;;;;;;;14.91;99.19;101535.13;5109068;27;20509;-72
2022/10/17 03:55:40;;;;;;;8.85;6.05;;;;;;;15.02;98.49;101532.72;5103237;27;20498;-72
2022/10/17 03:58:06;;;;;;;9.70;6.15;;;;;;;15.34;96.10;101533.50;5121083;27;20054;-72
2022/10/17 04:00:33;;;;;;;11.20;6.53;;;;;;;15.28;97.09;101531.22;5107999;27;20069;-72
2022/10/17 04:02:59;;;;;;;14.73;7.32;;;;;;;15.15;98.91;101533.72;5110143;27;20044;-72
2022/10/17 04:05:25;;;;;;;11.73;6.68;;;;;;;15.47;96.29;101530.06;5108010;27;20077;-72
2022/10/17 04:07:52;;;;;;;13.25;6.93;;;;;;;15.30;97.48;101538.09;5119329;27;20055;-72
2022/10/17 04:10:18;;;;;;;9.93;7.07;;;;;;;15.19;98.24;101535.25;5106416;28;20059;-72
2022/10/17 04:12:46;;;;;;;8.27;6.10;;;;;;;15.59;96.31;101539.91;5107536;27;20043;-72
2022/10/17 04:15:13;;;;;;;12.05;7.18;;;;;;;15.57;96.89;101535.66;5101431;27;20040;-72
2022/10/17 04:17:40;;;;;;;9.18;6.18;;;;;;;15.54;96.34;101536.72;5109855;28;20097;-72
2022/10/17 04:20:07;;;;;;;11.38;6.90;;;;;;;15.67;96.40;101546.56;5108225;27;20039;-72
2022/10/17 04:22:34;;;;;;;9.93;6.65;;;;;;;15.50;96.75;101537.81;5106655;27;20043;-72
2022/10/17 04:25:00;;;;;;;10.40;6.55;;;;;;;15.65;96.17;101537.84;5108933;27;20495;-72
2022/10/17 04:27:27;;;;;;;10.52;6.85;;;;;;;15.75;95.22;101531.91;5090420;27;20071;-72
2022/10/17 04:29:54;;;;;;;11.00;7.47;;;;;;;15.55;96.00;101537.56;5090271;27;20047;-72
2022/10/17 04:32:21;;;;;;;9.07;6.68;;;;;;;15.57;96.78;101538.31;5090397;27;20049;-72
2022/10/17 04:34:49;;;;;;;9.80;6.35;;;;;;;15.96;93.82;101545.63;5088901;27;20039;-73
2022/10/17 04:37:15;;;;;;;12.18;6.85;;;;;;;15.82;93.70;101541.16;5084600;27;20071;-73
2022/10/17 04:39:42;;;;;;;12.05;6.50;;;;;;;16.21;90.77;101550.25;5089001;27;20112;-72
2022/10/17 04:42:08;;;;;;;9.55;6.15;;;;;;;16.08;91.99;101540.44;5089591;27;20040;-72
2022/10/17 04:44:35;;;;;;;10.73;6.00;;;;;;;15.82;91.92;101541.16;5090370;28;20055;-73
2022/10/17 04:47:02;;;;;;;8.65;6.63;;;;;;;15.32;96.46;101541.53;5084755;28;20056;-72
2022/10/17 04:49:29;;;;;;;10.82;6.75;;;;;;;15.35;95.95;101536.06;5088588;27;20044;-73
2022/10/17 04:51:55;;;;;;;14.27;6.90;;;;;;;15.61;94.41;101549.53;5091379;27;20054;-72
2022/10/17 04:54:22;;;;;;;10.35;6.78;;;;;;;15.31;96.94;101552.19;5085217;27;20040;-72
2022/10/17 04:56:48;;;;;;;9.27;6.57;;;;;;;15.57;96.22;101546.22;5090319;28;20043;-72
2022/10/17 04:59:15;;;;;;;13.02;7.03;;;;;;;15.68;94.86;101546.44;5088673;27;20047;-71
2022/10/17 05:01:41;;;;;;;9.07;6.68;;;;;;;15.33;98.04;101556.44;5089357;27;20047;-71
2022/10/17 05:04:09;;;;;;;14.88;7.00;;;;;;;15.26;97.76;101549.78;5105905;27;20043;-72
2022/10/17 05:06:37;;;;;;;10.57;6.80;;;;;;;15.45;95.75;101541.63;5095898;27;20051;-72
2022/10/17 05:09:04;;;;;;;11.13;6.97;;;;;;;15.61;94.94;101546.91;5100349;27;20051;-72
2022/10/17 05:11:30;;;;;;;14.13;7.22;;;;;;;15.50;96.00;101545.75;5107601;27;20418;-72
2022/10/17 05:13:58;;;;;;;10.70;6.00;;;;;;;15.44;95.37;101546.09;5106783;27;20491;-72
2022/10/17 05:16:26;;;;;;;13.35;6.75;;;;;;;15.22;96.04;101542.16;5106644;28;20047;-72
2022/10/17 05:18:55;;;;;;;11.40;6.65;;;;;;;15.22;98.68;101548.31;5106878;27;20055;-72
2022/10/17 05:21:24;;;;;;;9.75;6.45;;;;;;;15.22;98.57;101543.00;5107631;27;20047;-72
2022/10/17 05:23:51;;;;;;;8.48;6.38;;;;;;;14.86;100.00;101545.94;5107366;28;20047;-72
2022/10/17 05:26:17;;;;;;;13.50;6.50;;;;;;;15.00;99.99;101551.28;5107196;27;20047;-72
2022/10/17 05:28:44;;;;;;;9.02;6.28;;;;;;;15.40;97.59;101546.38;5105455;27;20050;-72
2022/10/17 05:31:11;;;;;;;7.65;6.60;;;;;;;15.08;99.18;101557.00;5106846;27;20078;-72
2022/10/17 05:33:38;;;;;;;11.65;6.70;;;;;;;14.86;100.00;101556.50;5106412;28;20055;-72
2022/10/17 05:36:06;;;;;;;9.18;6.55;;;;;;;14.66;100.00;101558.59;5105119;27;20047;-72
2022/10/17 05:38:34;;;;;;;12.93;6.40;;;;;;;15.11;99.41;101550.72;5098547;28;20225;-72
2022/10/17 05:41:03;;;;;;;11.23;6.47;;;;;;;15.27;98.45;101554.16;5105680;28;20047;-72
2022/10/17 05:43:31;;;;;;;9.48;6.15;;;;;;;15.61;96.00;101554.84;5105711;27;20055;-72
2022/10/17 05:45:57;;;;;;;7.32;6.10;;;;;;;15.54;95.73;101555.22;5104445;27;20411;-72
2022/10/17 05:48:24;;;;;;;15.85;8.25;;;;;;;15.38;97.44;101554.38;5113408;27;20048;-72
2022/10/17 05:50:58;;;;;;;13.45;6.50;;;;;;;15.33;97.47;101558.25;5105035;27;20471;-72
2022/10/17 05:53:24;;;;;;;9.38;6.00;;;;;;;15.50;96.73;101558.97;5097911;27;20044;-72
2022/10/17 05:55:57;;;;;;;9.45;6.10;;;;;;;14.93;99.90;101557.88;5107009;28;20039;-72
2022/10/17 05:58:24;;;;;;;13.70;6.25;;;;;;;15.17;98.92;101555.63;5104877;27;20051;-72
2022/10/17 06:00:50;;;;;;;11.20;6.07;;;;;;;15.39;97.51;101553.44;5105297;27;20039;-72
2022/10/17 06:03:17;;;;;;;8.50;6.15;;;;;;;15.24;97.98;101558.75;5108055;28;20051;-72
2022/10/17 06:05:43;;;;;;;8.23;6.15;;;;;;;15.46;96.43;101541.56;5078070;27;20467;-72
2022/10/17 06:08:09;;;;;;;11.43;5.82;;;;;;;15.51;96.83;101554.53;5087005;27;20407;-72
2022/10/17 06:10:36;;;;;;;9.20;5.85;;;;;;;15.62;95.30;101561.84;5087441;27;20043;-72
2022/10/17 06:13:06;;;;;;;7.00;5.30;;;;;;;15.84;94.07;101556.97;5077636;27;20439;-72
2022/10/17 06:15:33;;;;;;;9.40;6.10;;;;;;;16.09;92.50;101562.44;5085659;27;20533;-72
2022/10/17 06:17:59;;;;;;;9.60;5.85;;;;;;;16.08;93.08;101566.03;5088908;27;20058;-72
2022/10/17 06:20:26;;;;;;;16.02;6.05;;;;;;;15.95;92.48;101571.22;5077731;27;20047;-72
2022/10/17 06:22:52;;;;;;;9.80;5.45;;;;;;;16.07;93.40;101578.41;5087142;28;20040;-72
2022/10/17 06:25:19;;;;;;;6.20;5.28;;;;;;;16.18;92.86;101572.47;5087907;27;20047;-72
2022/10/17 06:27:45;;;;;;;9.48;5.13;;;;;;;16.65;89.16;101579.25;5077832;27;20058;-73
2022/10/17 06:30:13;;;;;;;11.68;5.88;;;;;;;16.37;89.78;101580.13;5087093;28;20040;-72
2022/10/17 06:32:39;;;;;;;7.53;4.97;;;;;;;16.68;88.93;101584.34;5089070;28;20051;-72
2022/10/17 06:35:07;;;;;;;8.48;4.47;;;;;;;16.42;90.17;101572.72;5077830;27;20048;-72
2022/10/17 06:37:35;;;;;;;11.10;4.57;;;;;;;16.75;87.65;101573.25;5086776;27;20050;-73
2022/10/17 06:40:02;;;;;;;7.20;4.45;;;;;;;16.29;91.04;101575.31;5088009;27;20588;-72
2022/10/17 06:42:28;;;;;;;7.43;4.20;;;;;;;16.91;87.45;101574.00;5077641;28;20096;-72
2022/10/17 06:44:55;;;;;;;8.80;4.50;;;;;;;16.93;87.54;101580.03;5086665;27;20042;-72
2022/10/17 06:47:22;;;;;;;8.75;4.15;;;;;;;17.23;85.41;101584.28;5088223;28;20063;-72
2022/10/17 06:49:49;;;;;;;11.73;5.82;;;;;;;17.05;87.03;101581.03;5077971;27;20058;-72
2022/10/17 06:52:16;;;;;;;9.98;5.10;;;;;;;17.39;84.88;101593.78;5087853;28;20047;-72
2022/10/17 06:54:42;;;;;;;5.40;4.00;;;;;;;17.54;84.22;101591.91;5087395;27;20046;-72
2022/10/17 06:57:09;;;;;;;9.38;4.25;;;;;;;18.06;81.08;101589.22;5077044;27;20050;-72
2022/10/17 06:59:35;;;;;;;9.25;4.20;;;;;;;18.58;79.41;101596.19;5086083;27;20453;-72
2022/10/17 07:02:02;;;;;;;5.13;3.50;;;;;;;18.53;79.80;101601.84;5092268;27;20047;-72
2022/10/17 07:04:30;;;;;;;8.23;4.05;;;;;;;19.14;76.77;101610.69;5094956;27;20058;-72
2022/10/17 07:06:57;;;;;;;8.85;4.00;;;;;;;18.48;78.36;101615.41;5087412;28;20043;-72
2022/10/17 07:09:23;;;;;;;5.93;3.63;;;;;;;18.81;77.96;101621.94;5087118;27;20047;-72
2022/10/17 07:11:50;;;;;;;5.75;3.88;;;;;;;18.99;76.26;101610.00;5069604;28;20043;-72
2022/10/17 07:14:17;;;;;;;5.90;3.65;;;;;;;19.14;75.57;101613.34;5087072;27;20071;-72
2022/10/17 07:16:44;;;;;;;6.03;4.05;;;;;;;18.95;77.37;101617.34;5087907;28;20044;-72
2022/10/17 07:19:10;;;;;;;8.65;3.65;;;;;;;19.43;74.68;101618.25;5076575;28;20047;-72
2022/10/17 07:21:38;;;;;;;4.45;3.20;;;;;;;19.73;73.25;101619.53;5086122;27;20510;-73
2022/10/17 07:24:06;;;;;;;9.38;3.78;;;;;;;19.85;73.08;101614.13;5087602;27;20051;-73
2022/10/17 07:26:32;;;;;;;5.50;3.25;;;;;;;20.05;73.15;101611.75;5080079;27;20058;-73
2022/10/17 07:28:59;;;;;;;8.77;3.65;;;;;;;20.33;70.79;101611.31;5090295;27;20611;-73
2022/10/17 07:31:25;;;;;;;6.45;3.00;;;;;;;20.48;71.64;101619.91;5092492;27;20048;-73
2022/10/17 07:33:51;;;;;;;7.25;3.20;;;;;;;20.82;68.34;101616.25;5082164;28;20069;-73
2022/10/17 07:36:18;;;;;;;8.32;3.15;;;;;;;20.64;70.01;101615.06;5091112;28;20043;-73
2022/10/17 07:38:46;;;;;;;12.52;3.22;;;;;;;20.71;69.64;101614.44;5091938;27;20043;-73
2022/10/17 07:41:13;;;;;;;7.65;3.00;;;;;;;20.99;67.51;101614.88;5080218;27;20652;-73
2022/10/17 07:43:41;;;;;;;5.28;3.20;;;;;;;21.10;67.47;101618.34;5089056;28;20413;-73
2022/10/17 07:46:10;;;;;;;6.03;3.10;;;;;;;21.58;67.67;101615.31;5091725;27;20135;-74
2022/10/17 07:48:36;;;;;;;5.32;3.00;;;;;;;21.78;64.86;101619.78;5081171;28;20054;-74
2022/10/17 07:51:04;;;;;;;8.93;2.83;;;;;;;21.51;66.95;101622.09;5089259;27;20050;-74
2022/10/17 07:53:31;;;;;;;5.57;2.88;;;;;;;21.59;67.53;101619.66;5091468;27;20051;-73
2022/10/17 07:55:59;;;;;;;6.10;2.80;;;;;;;22.01;63.96;101620.53;5080364;27;20044;-73
2022/10/17 07:58:27;;;;;;;7.28;2.90;;;;;;;22.46;62.83;101626.41;5086491;27;20510;-73
2022/10/17 08:00:54;;;;;;;5.10;2.90;;;;;;;21.96;63.52;101622.75;5091270;27;20043;-74
2022/10/17 08:03:20;;;;;;;5.15;2.90;;;;;;;21.65;65.29;101621.81;5081583;27;20055;-73
2022/10/17 08:05:47;;;;;;;4.22;2.90;;;;;;;21.82;65.25;101627.44;5090531;27;20420;-74
2022/10/17 08:08:13;;;;;;;4.55;2.63;;;;;;;21.58;65.26;101623.31;5091309;27;20054;-74
2022/10/17 08:10:40;;;;;;;3.13;2.50;;;;;;;22.26;63.55;101630.81;5079436;27;20047;-73
2022/10/17 08:13:08;;;;;;;3.13;2.60;;;;;;;21.97;63.36;101630.66;5085904;28;20043;-74
2022/10/17 08:15:36;;;;;;;5.82;2.90;;;;;;;21.35;65.99;101633.22;5081980;27;20043;-74
2022/10/17 08:18:03;;;;;;;4.93;2.90;;;;;;;21.98;64.02;101631.50;5079965;28;20039;-74
2022/10/17 08:20:29;;;;;;;5.90;2.72;;;;;;;22.71;62.04;101632.16;5090058;27;20051;-74
2022/10/17 08:22:56;;;;;;;8.25;2.60;;;;;;;23.71;58.92;101641.75;5090988;28;20048;-74
2022/10/17 08:25:23;;;;;;;6.07;2.67;;;;;;;22.75;60.93;101638.94;5080208;28;20039;-74
2022/10/17 08:27:50;;;;;;;5.85;2.70;;;;;;;22.22;63.66;101634.72;5089948;28;20048;-74
2022/10/17 08:30:18;;;;;;;8.10;2.80;;;;;;;21.94;64.71;101630.91;5096882;27;20054;-73
2022/10/17 08:32:44;;;;;;;5.43;3.10;;;;;;;21.97;63.88;101624.44;5087786;27;20419;-73
2022/10/17 08:35:13;;;;;;;8.60;3.08;;;;;;;21.70;64.91;101627.59;5089292;28;20407;-73
2022/10/17 08:37:40;;;;;;;6.22;2.75;;;;;;;21.12;67.00;101624.44;5090105;28;20149;-73
2022/10/17 08:40:09;;;;;;;6.75;2.50;;;;;;;21.29;67.32;101610.56;5081646;27;20396;-73
2022/10/17 08:42:52;;;;;;;5.20;2.67;;;;;;;21.93;65.76;101615.00;5088686;27;20050;-73
2022/10/17 08:45:28;;;;;;;6.63;2.80;;;;;;;22.58;63.48;101603.94;5065787;28;20044;-73
2022/10/17 08:47:59;;;;;;;5.43;2.97;;;;;;;23.40;59.89;101609.88;5088716;28;20411;-73
2022/10/17 08:50:32;;;;;;;6.40;2.75;;;;;;;23.79;60.99;101595.50;5079685;27;20051;-73
2022/10/17 08:53:04;;;;;;;7.70;2.58;;;;;;;23.88;59.87;101604.50;5089799;28;20044;-73
2022/10/17 08:55:36;;;;;;;6.38;2.42;;;;;;;24.00;58.54;101604.19;5090575;28;20051;-73
2022/10/17 08:58:03;;;;;;;5.13;2.63;;;;;;;23.61;58.39;101599.91;5090262;28;20048;-73
2022/10/17 09:00:32;;;;;;;3.60;2.22;;;;;;;23.44;59.22;101598.78;5088767;27;20054;-73
2022/10/17 09:03:12;;;;;;;5.07;2.50;;;;;;;23.65;60.64;101598.66;5086350;28;20055;-73
2022/10/17 09:05:50;;;;;;;6.95;2.42;;;;;;;23.94;59.30;101596.75;5087458;28;20411;-73
2022/10/17 09:08:32;;;;;;;10.65;2.97;;;;;;;24.02;57.65;101602.22;5078659;28;20040;-73
2022/10/17 09:11:09;;;;;;;9.00;2.40;;;;;;;23.68;59.15;101593.00;5089180;27;20054;-73
2022/10/17 09:13:51;;;;;;;5.68;2.35;;;;;;;23.54;59.01;101593.44;5075524;28;20051;-73
2022/10/17 09:16:36;;;;;;;4.25;2.40;;;;;;;22.99;60.98;101601.09;5087065;28;20239;-74
2022/10/17 09:19:09;;;;;;;5.57;2.10;;;;;;;23.25;60.33;101604.94;5089711;28;20040;-74
2022/10/17 09:21:43;;;;;;;7.65;2.47;;;;;;;24.17;57.96;101591.91;5090548;28;20051;-74
2022/10/17 09:24:17;;;;;;;5.55;2.40;;;;;;;25.00;56.25;101590.94;5079369;27;20043;-73
2022/10/17 09:26:45;;;;;;;5.13;2.20;;;;;;;25.22;54.39;101586.97;5087219;28;20048;-74
2022/10/17 09:29:19;;;;;;;4.60;2.30;;;;;;;25.38;54.74;101581.75;5065876;28;20071;-74
2022/10/17 09:31:53;;;;;;;4.68;2.33;;;;;;;24.95;54.78;101590.53;5075222;27;20122;-74
2022/10/17 09:34:20;;;;;;;8.90;2.40;;;;;;;25.87;52.48;101589.19;5090112;27;20600;-68
2022/10/17 09:36:46;;;;;;;6.65;2.03;;;;;;;25.79;51.27;101599.06;5078570;27;20058;-74
2022/10/17 09:39:16;;;;;;;5.07;2.30;;;;;;;26.52;52.52;101600.34;5088016;28;20055;-74
2022/10/17 09:41:47;;;;;;;7.75;2.63;;;;;;;26.64;51.34;101591.81;5089224;27;20047;-75
2022/10/17 09:44:17;;;;;;;7.70;2.10;;;;;;;26.88;48.06;101604.53;5081239;27;20048;-75
2022/10/17 09:47:02;;;;;;;8.07;2.20;;;;;;;25.97;48.96;101597.19;5088548;27;20047;-74
2022/10/17 09:49:33;;;;;;;6.15;2.22;;;;;;;25.37;49.40;101596.16;5092477;28;20512;-74
2022/10/17 09:52:01;;;;;;;5.60;2.17;;;;;;;25.57;50.21;101592.34;5087799;28;20051;-74
2022/10/17 09:54:32;;;;;;;4.03;2.00;;;;;;;26.37;48.97;101600.13;5079060;28;20046;-74
2022/10/17 09:57:00;;;;;;;5.73;2.00;;;;;;;27.37;46.20;101604.63;5088863;27;20444;-74
2022/10/17 09:59:32;;;;;;;5.97;2.33;;;;;;;27.10;46.24;101605.78;5088382;27;20285;-74
2022/10/17 10:02:15;;;;;;;5.90;2.15;;;;;;;27.68;47.26;101611.06;5088076;27;20391;-74
2022/10/17 10:04:56;;;;;;;2.92;2.10;;;;;;;27.45;44.71;101623.50;5089060;28;20450;-74
2022/10/17 10:07:23;;;;;;;4.85;2.00;;;;;;;26.42;46.97;101613.09;5088532;28;20051;-74
2022/10/17 10:09:51;;;;;;;4.35;2.10;;;;;;;26.33;49.65;101605.97;5086595;28;20039;-74
2022/10/17 10:12:20;;;;;;;4.72;1.80;;;;;;;26.75;47.42;101612.22;5079289;28;20487;-74
2022/10/17 10:14:47;;;;;;;6.90;2.17;;;;;;;26.07;48.36;101603.28;5080883;28;20055;-74
2022/10/17 10:17:37;;;;;;;4.35;2.00;;;;;;;25.70;49.62;101606.22;5087430;28;20417;-74
2022/10/17 10:20:25;;;;;;;4.07;2.30;;;;;;;25.42;49.17;101600.09;5087998;28;20101;-74
2022/10/17 10:23:05;;;;;;;6.38;2.30;;;;;;;25.32;51.75;101601.16;5075728;27;20039;-73
2022/10/17 10:25:32;;;;;;;5.78;2.33;;;;;;;25.35;49.83;101590.13;5087686;28;20047;-73
2022/10/17 10:27:59;;;;;;;8.18;1.85;;;;;;;25.02;51.59;101597.00;5088515;28;20506;-74
2022/10/17 10:30:30;;;;;;;7.03;1.90;;;;;;;25.08;50.93;101605.31;5084805;28;20420;-74
2022/10/17 10:33:00;;;;;;;5.28;2.00;;;;;;;24.77;51.51;101617.31;5087317;28;20075;-74
2022/10/17 10:35:33;;;;;;;9.68;2.40;;;;;;;25.05;51.70;101602.09;5075146;28;20506;-73
2022/10/17 10:38:03;;;;;;;4.82;2.63;;;;;;;24.59;53.48;101605.69;5085963;28;20654;-73
2022/10/17 10:40:32;;;;;;;6.32;2.03;;;;;;;24.59;51.45;101600.34;5087185;28;20487;-73
2022/10/17 10:43:00;;;;;;;6.38;2.15;;;;;;;24.26;52.73;101607.13;5077492;28;20039;-74
2022/10/17 10:45:28;;;;;;;4.47;1.88;;;;;;;24.35;53.02;101600.03;5070058;28;20044;-73
2022/10/17 10:47:59;;;;;;;8.80;2.30;;;;;;;24.66;52.40;101598.75;5070258;28;20051;-74
2022/10/17 10:50:31;;;;;;;6.43;2.00;;;;;;;24.38;52.88;101599.75;5088317;28;20047;-74
2022/10/17 10:53:13;;;;;;;7.25;2.33;;;;;;;24.34;53.56;101599.19;5087798;28;20043;-73
2022/10/17 10:55:45;;;;;;;4.50;1.73;;;;;;;24.50;52.55;101598.56;5087608;28;20666;-74
2022/10/17 10:58:32;;;;;;;5.73;2.03;;;;;;;24.50;53.00;101609.28;5087607;28;20096;-75
2022/10/17 11:01:04;;;;;;;4.97;1.90;;;;;;;24.61;53.11;101601.88;5087160;28;20777;-75
2022/10/17 11:03:37;;;;;;;3.70;2.20;;;;;;;24.81;52.00;101605.28;5088065;28;20046;-72
2022/10/17 11:06:11;;;;;;;6.70;2.20;;;;;;;25.13;51.24;101602.97;5077908;28;20040;-72
2022/10/17 11:08:43;;;;;;;7.05;2.30;;;;;;;25.67;51.11;101604.69;5086100;28;20051;-73
2022/10/17 11:11:18;;;;;;;7.85;2.42;;;;;;;25.77;49.04;101612.66;5076002;28;20542;-72
2022/10/17 11:13:51;;;;;;;5.07;2.20;;;;;;;25.90;48.47;101596.97;5086927;28;20070;-72
2022/10/17 11:16:31;;;;;;;10.80;2.28;;;;;;;25.67;49.01;101603.84;5088596;28;20048;-72
2022/10/17 11:19:08;;;;;;;4.55;2.40;;;;;;;25.65;50.61;101604.00;5086671;28;20048;-72
2022/10/17 11:21:43;;;;;;;6.35;2.47;;;;;;;25.67;50.04;101607.38;5077156;28;20047;-72
2022/10/17 11:24:19;;;;;;;3.38;2.13;;;;;;;25.56;49.51;101612.16;5086918;28;20047;-72
2022/10/17 11:26:53;;;;;;;4.97;2.45;;;;;;;25.01;50.44;101611.44;5087118;28;20047;-72
2022/10/17 11:29:22;;;;;;;6.32;2.50;;;;;;;24.85;50.91;101609.41;5086224;28;20044;-72
2022/10/17 11:31:52;;;;;;;5.60;2.30;;;;;;;24.86;51.86;101595.00;5087767;28;20043;-72
2022/10/17 11:34:25;;;;;;;6.03;2.10;;;;;;;24.89;51.42;101608.09;5077055;28;20040;-72
2022/10/17 11:36:56;;;;;;;4.97;2.08;;;;;;;24.87;52.60;101599.34;5086795;28;20487;-72